Terminal Aerodrome Forecast
Issued by NWS

Home | Current Version | Previous Version | Text Only | Print | Product List | Glossary On
Versions: 1 2 3 4 5 6 7 8 9 10 11 12 13 14 15 16
328
FTUS41 KAKQ 221137
TAFPHF
TAF
KPHF 221137Z 2212/2312 21009KT P6SM SCT120
     FM221700 21011KT P6SM FEW050
     FM230300 23008KT P6SM SCT200=

USA.gov is the U.S. government's official web portal to all federal, state and local government web resources and services.